createdAt,value
2018-09-30T03:14:14.465Z,8.71
2018-09-30T03:15:14.233Z,8.58
2018-09-30T03:16:14.225Z,8.84
2018-09-30T03:17:14.211Z,8.97
2018-09-30T03:18:14.191Z,8.86
2018-09-30T03:19:14.192Z,8.87
2018-09-30T03:20:14.176Z,9.01
2018-09-30T03:21:14.161Z,9.01
2018-09-30T03:22:14.164Z,9.27
2018-09-30T03:23:14.148Z,9.30
2018-09-30T03:24:14.142Z,9.24
2018-09-30T03:25:14.129Z,9.25
2018-09-30T03:26:14.145Z,9.42
2018-09-30T03:27:14.120Z,9.23
2018-09-30T03:28:14.116Z,9.25
2018-09-30T03:29:14.107Z,9.27
2018-09-30T03:30:14.105Z,9.06
2018-09-30T03:31:14.091Z,9.16
2018-09-30T03:32:14.076Z,9.24
2018-09-30T03:33:14.103Z,8.83
2018-09-30T03:34:14.077Z,8.87
2018-09-30T03:35:14.069Z,8.91
2018-09-30T03:36:14.075Z,9.21
2018-09-30T03:37:14.074Z,9.06
2018-09-30T03:38:14.061Z,8.86
2018-09-30T03:39:14.049Z,8.83
2018-09-30T03:40:14.040Z,8.72
2018-09-30T03:41:14.025Z,8.44
2018-09-30T03:42:14.019Z,8.25
2018-09-30T03:43:14.049Z,8.11
2018-09-30T03:44:13.998Z,8.62
2018-09-30T03:45:14.031Z,9.04
2018-09-30T03:46:13.994Z,9.49
2018-09-30T03:47:14.048Z,9.05
2018-09-30T03:48:13.984Z,9.18
2018-09-30T03:49:13.975Z,9.79
2018-09-30T03:50:13.961Z,9.93
2018-09-30T03:51:13.969Z,9.73
2018-09-30T03:52:13.971Z,9.40
2018-09-30T03:53:13.948Z,9.15
2018-09-30T03:54:13.949Z,9.05
2018-09-30T03:55:13.928Z,8.96
2018-09-30T03:56:13.940Z,9.43
2018-09-30T03:57:13.943Z,9.18
2018-09-30T03:58:13.962Z,8.91
2018-09-30T03:59:13.903Z,8.91
2018-09-30T04:00:13.897Z,8.69
2018-09-30T04:01:13.900Z,8.68
2018-09-30T04:02:13.891Z,8.53
2018-09-30T04:03:13.887Z,8.69
2018-09-30T04:04:13.884Z,9.34
2018-09-30T04:05:13.878Z,9.60
2018-09-30T04:06:13.868Z,9.70
2018-09-30T04:07:13.860Z,9.49
2018-09-30T04:08:13.853Z,9.06
2018-09-30T04:09:13.843Z,9.12
2018-09-30T04:10:13.926Z,9.58
2018-09-30T04:11:13.839Z,9.25
2018-09-30T04:12:13.853Z,9.64
2018-09-30T04:13:13.870Z,9.58
2018-09-30T04:14:13.821Z,9.09
2018-09-30T04:15:13.852Z,9.63
2018-09-30T04:16:13.796Z,9.70
2018-09-30T04:17:13.811Z,9.64
2018-09-30T04:18:13.838Z,9.13
2018-09-30T04:19:13.795Z,8.87
2018-09-30T04:20:13.799Z,8.71
2018-09-30T04:21:13.797Z,8.54
2018-09-30T04:22:13.777Z,8.45
2018-09-30T04:23:13.783Z,8.39
2018-09-30T04:24:13.785Z,9.04
2018-09-30T04:25:13.764Z,9.39
2018-09-30T04:26:13.745Z,9.30
2018-09-30T04:27:13.739Z,8.91
2018-09-30T04:28:13.749Z,8.73
2018-09-30T04:29:13.760Z,9.27
2018-09-30T04:30:13.743Z,9.25
2018-09-30T04:31:13.753Z,8.86
2018-09-30T04:32:13.741Z,8.57
2018-09-30T04:33:13.755Z,8.66
2018-09-30T04:34:13.726Z,8.44
2018-09-30T04:35:13.716Z,9.01
2018-09-30T04:36:13.728Z,8.96
2018-09-30T04:37:13.723Z,9.23
2018-09-30T04:38:13.708Z,8.71
2018-09-30T04:39:13.681Z,8.86
2018-09-30T04:40:13.718Z,8.58
2018-09-30T04:41:13.696Z,8.53
2018-09-30T04:42:13.639Z,8.35
2018-09-30T04:43:13.637Z,8.21
2018-09-30T04:44:13.651Z,8.26
2018-09-30T04:45:13.646Z,8.28
2018-09-30T04:46:13.632Z,8.37
2018-09-30T04:47:13.616Z,8.88
2018-09-30T04:48:13.604Z,8.78
2018-09-30T04:49:13.599Z,9.38
2018-09-30T04:50:13.589Z,9.58
2018-09-30T04:51:13.584Z,8.86
2018-09-30T04:52:13.600Z,8.53
2018-09-30T04:53:13.577Z,8.29
2018-09-30T04:54:13.598Z,8.39
2018-09-30T04:55:13.586Z,8.29
2018-09-30T04:56:13.550Z,9.05
2018-09-30T04:57:13.544Z,9.42
2018-09-30T04:58:22.167Z,9.71
2018-09-30T05:00:06.941Z,8.91
2018-09-30T05:01:06.906Z,8.53
2018-09-30T05:02:06.910Z,8.51
2018-09-30T05:03:06.919Z,8.14
2018-09-30T05:04:06.909Z,8.65
2018-09-30T05:05:06.901Z,8.25
2018-09-30T05:06:06.882Z,8.32
2018-09-30T05:07:06.903Z,8.93
2018-09-30T05:08:06.868Z,8.76
2018-09-30T05:09:06.859Z,8.18
2018-09-30T05:10:06.867Z,8.10
2018-09-30T05:11:06.871Z,8.42
2018-09-30T05:12:06.872Z,8.87
2018-09-30T05:13:06.827Z,9.20
2018-09-30T05:14:06.889Z,9.15
2018-09-30T05:15:06.839Z,9.31
2018-09-30T05:16:06.912Z,9.09
2018-09-30T05:17:06.800Z,8.65
2018-09-30T05:18:06.822Z,8.29
2018-09-30T05:19:06.819Z,7.78
2018-09-30T05:20:06.796Z,7.97
2018-09-30T05:21:06.795Z,7.69
2018-09-30T05:22:06.789Z,7.19
2018-09-30T05:23:06.787Z,7.44
2018-09-30T05:24:06.765Z,7.47
2018-09-30T05:25:06.761Z,7.47
2018-09-30T05:26:06.789Z,8.10
2018-09-30T05:27:06.743Z,8.60
2018-09-30T05:28:06.783Z,8.44
2018-09-30T05:29:06.754Z,8.55
2018-09-30T05:30:06.735Z,8.42
2018-09-30T05:31:06.773Z,8.42
2018-09-30T05:32:06.728Z,7.97
2018-09-30T05:33:06.718Z,8.02
2018-09-30T05:34:06.698Z,7.97
2018-09-30T05:35:06.715Z,8.79
2018-09-30T05:36:06.679Z,8.87
2018-09-30T05:37:06.679Z,9.06
2018-09-30T05:38:06.680Z,9.24
2018-09-30T05:39:06.658Z,9.32
2018-09-30T05:40:06.664Z,9.42
2018-09-30T05:41:06.665Z,9.39
2018-09-30T05:42:06.665Z,9.12
2018-09-30T05:43:06.656Z,8.55
2018-09-30T05:44:06.630Z,8.04
2018-09-30T05:45:06.625Z,7.84
2018-09-30T05:46:06.611Z,7.74
2018-09-30T05:47:06.622Z,7.35
2018-09-30T05:48:06.616Z,7.17
2018-09-30T05:49:06.628Z,7.16
2018-09-30T05:50:06.594Z,7.29
2018-09-30T05:51:06.617Z,7.71
2018-09-30T05:52:06.590Z,7.17
2018-09-30T05:53:06.566Z,7.38
2018-09-30T05:54:06.586Z,7.50
2018-09-30T05:55:06.569Z,7.84
2018-09-30T05:56:06.571Z,7.92
2018-09-30T05:57:06.583Z,7.58
2018-09-30T05:58:06.651Z,7.40
2018-09-30T05:59:06.527Z,6.97
2018-09-30T06:00:06.539Z,7.17
2018-09-30T06:01:06.528Z,7.60
2018-09-30T06:02:06.527Z,7.42
2018-09-30T06:03:06.619Z,7.75
2018-09-30T06:04:06.614Z,7.52
2018-09-30T06:05:06.485Z,7.42
2018-09-30T06:06:06.490Z,7.79
2018-09-30T06:07:06.498Z,7.63
2018-09-30T06:08:06.462Z,7.72
2018-09-30T06:09:06.526Z,7.77
2018-09-30T06:10:06.463Z,7.85
2018-09-30T06:11:06.476Z,7.60
2018-09-30T06:12:06.464Z,7.32
2018-09-30T06:13:06.464Z,7.59
2018-09-30T06:14:06.633Z,7.71
2018-09-30T06:15:06.490Z,7.96
2018-09-30T06:16:06.419Z,7.89
2018-09-30T06:17:06.413Z,7.87
2018-09-30T06:18:06.406Z,7.87
2018-09-30T06:19:06.410Z,7.79
2018-09-30T06:20:06.422Z,8.02
2018-09-30T06:21:06.379Z,7.85
2018-09-30T06:22:06.433Z,7.52
2018-09-30T06:23:06.465Z,7.24
2018-09-30T06:24:06.441Z,7.50
2018-09-30T06:25:06.371Z,7.99
2018-09-30T06:26:06.376Z,8.07
2018-09-30T06:27:06.367Z,7.94
2018-09-30T06:28:06.341Z,8.29
2018-09-30T06:29:06.361Z,8.28
2018-09-30T06:30:06.350Z,8.28
2018-09-30T06:31:06.328Z,8.08
2018-09-30T06:32:06.449Z,7.85
2018-09-30T06:33:06.303Z,7.74
2018-09-30T06:34:06.313Z,7.66
2018-09-30T06:35:06.312Z,7.99
2018-09-30T06:36:06.300Z,8.37
2018-09-30T06:37:06.320Z,8.51
2018-09-30T06:38:06.272Z,8.47
2018-09-30T06:39:06.296Z,8.14
2018-09-30T06:40:06.268Z,8.37
2018-09-30T06:41:06.256Z,8.57
2018-09-30T06:42:06.266Z,8.87
2018-09-30T06:43:06.302Z,8.96
2018-09-30T06:44:06.268Z,8.58
2018-09-30T06:45:06.366Z,8.60
2018-09-30T06:46:06.243Z,8.81
2018-09-30T06:47:06.234Z,8.71
2018-09-30T06:48:06.210Z,8.58
2018-09-30T06:49:06.212Z,8.51
2018-09-30T06:50:06.213Z,8.68
2018-09-30T06:51:06.253Z,8.72
2018-09-30T06:52:06.229Z,8.65
2018-09-30T06:53:06.183Z,8.54
2018-09-30T06:54:06.201Z,8.30
2018-09-30T06:55:06.220Z,8.15
2018-09-30T06:56:06.167Z,8.30
2018-09-30T06:57:06.167Z,8.42
2018-09-30T06:58:06.165Z,8.28
2018-09-30T06:59:06.159Z,8.14
2018-09-30T07:00:06.143Z,8.32
2018-09-30T07:01:06.182Z,8.55
2018-09-30T07:02:06.155Z,8.33
2018-09-30T07:03:06.123Z,8.26
2018-09-30T07:04:06.118Z,8.21
2018-09-30T07:05:06.111Z,8.35
2018-09-30T07:06:06.118Z,8.53
2018-09-30T07:07:06.086Z,8.37
2018-09-30T07:08:06.082Z,8.83
2018-09-30T07:09:06.080Z,8.73
2018-09-30T07:10:06.086Z,9.24
2018-09-30T07:11:06.073Z,9.23
2018-09-30T07:12:06.072Z,9.20
2018-09-30T07:13:06.068Z,9.18
2018-09-30T07:14:06.078Z,8.99
2018-09-30T07:15:06.038Z,9.01
2018-09-30T07:16:06.040Z,8.88
2018-09-30T07:17:06.042Z,8.86
2018-09-30T07:18:06.082Z,8.96
2018-09-30T07:19:06.146Z,8.91
2018-09-30T07:20:06.018Z,9.23
2018-09-30T07:21:06.020Z,9.68
2018-09-30T07:22:06.021Z,9.48
2018-09-30T07:23:05.996Z,9.10
2018-09-30T07:24:06.010Z,8.90
2018-09-30T07:25:05.990Z,9.09
2018-09-30T07:26:05.983Z,9.27
2018-09-30T07:27:05.972Z,9.28
2018-09-30T07:28:06.085Z,9.20
2018-09-30T07:29:05.969Z,9.25
2018-09-30T07:30:05.972Z,9.25
2018-09-30T07:31:05.958Z,9.23
2018-09-30T07:32:05.943Z,8.87
2018-09-30T07:33:05.938Z,8.93
2018-09-30T07:34:05.929Z,8.84
2018-09-30T07:35:05.927Z,8.90
2018-09-30T07:36:05.928Z,8.93
2018-09-30T07:37:05.918Z,9.02
2018-09-30T07:38:06.019Z,8.96
2018-09-30T07:39:05.916Z,9.06
2018-09-30T07:40:05.902Z,9.31
2018-09-30T07:41:05.898Z,9.31
2018-09-30T07:42:15.072Z,9.39
2018-09-30T07:43:59.294Z,9.31
2018-09-30T07:44:59.277Z,9.38
2018-09-30T07:47:22.368Z,9.49
2018-09-30T07:50:22.301Z,9.63
2018-09-30T07:51:14.551Z,9.73
2018-09-30T07:53:07.940Z,9.68
2018-09-30T07:54:07.966Z,9.81
2018-09-30T07:55:07.916Z,9.99
2018-09-30T07:56:07.904Z,10.14
2018-09-30T07:58:28.977Z,10.03
2018-09-30T07:59:28.935Z,9.81
2018-09-30T08:00:28.936Z,9.58
2018-09-30T08:01:28.941Z,9.60
2018-09-30T08:02:28.923Z,9.73
2018-09-30T08:03:28.916Z,9.94
2018-09-30T08:04:28.928Z,10.03
2018-09-30T08:05:28.908Z,10.07
2018-09-30T08:06:29.062Z,10.21
2018-09-30T08:07:28.924Z,10.18
2018-09-30T08:08:28.927Z,10.24
2018-09-30T08:09:28.906Z,10.06
2018-09-30T08:10:28.877Z,10.24
2018-09-30T08:11:28.969Z,10.15
2018-09-30T08:12:28.920Z,10.26
2018-09-30T08:13:28.979Z,10.34
2018-09-30T08:14:28.907Z,10.43
2018-09-30T08:15:28.856Z,10.39
2018-09-30T08:16:28.894Z,10.39
2018-09-30T08:17:28.918Z,10.55
2018-09-30T08:18:28.936Z,10.44
2018-09-30T08:19:28.842Z,10.40
2018-09-30T08:20:29.435Z,10.40
2018-09-30T08:21:28.930Z,10.40
2018-09-30T08:22:28.888Z,10.42
2018-09-30T08:23:28.818Z,10.43
2018-09-30T08:24:28.864Z,10.55
2018-09-30T08:25:28.854Z,10.55
2018-09-30T08:26:28.798Z,10.55
2018-09-30T08:27:28.961Z,10.44
2018-09-30T08:28:28.815Z,10.36
2018-09-30T08:29:28.812Z,10.33
2018-09-30T08:30:28.775Z,10.36
2018-09-30T08:31:28.815Z,10.47
2018-09-30T08:32:28.768Z,10.52
2018-09-30T08:33:28.827Z,10.66
2018-09-30T08:34:28.756Z,10.66
2018-09-30T08:35:28.761Z,10.71
2018-09-30T08:36:28.780Z,10.77
2018-09-30T08:37:28.748Z,10.70
2018-09-30T08:38:28.790Z,10.73
2018-09-30T08:39:28.772Z,10.86
2018-09-30T08:40:28.736Z,10.91
2018-09-30T08:41:28.724Z,11.07
2018-09-30T08:42:28.721Z,11.02
2018-09-30T08:43:28.710Z,11.02
2018-09-30T08:44:28.733Z,10.95
2018-09-30T08:45:28.830Z,10.94
2018-09-30T08:46:28.743Z,10.95
2018-09-30T08:47:28.814Z,10.91
2018-09-30T08:48:28.721Z,11.16
2018-09-30T08:49:28.729Z,11.19
2018-09-30T08:50:28.827Z,11.10
2018-09-30T08:51:28.673Z,11.11
2018-09-30T08:52:28.691Z,11.17
2018-09-30T08:53:28.657Z,11.21
2018-09-30T08:54:28.723Z,11.24
2018-09-30T08:55:28.733Z,11.24
2018-09-30T08:56:28.720Z,11.28
2018-09-30T08:57:28.679Z,11.24
2018-09-30T08:58:28.651Z,11.29
2018-09-30T08:59:28.757Z,11.31
2018-09-30T09:00:28.814Z,11.21
2018-09-30T09:01:28.667Z,11.36
2018-09-30T09:02:28.625Z,11.38
2018-09-30T09:03:28.653Z,11.27
2018-09-30T09:04:28.620Z,11.28
2018-09-30T09:05:28.655Z,11.34
2018-09-30T09:06:28.635Z,11.35
2018-09-30T09:07:28.612Z,11.35
2018-09-30T09:08:28.599Z,11.39
2018-09-30T09:09:28.650Z,11.52
2018-09-30T09:10:28.609Z,11.59
2018-09-30T09:11:28.584Z,11.74
2018-09-30T09:12:28.603Z,11.67
2018-09-30T09:13:28.606Z,11.65
2018-09-30T09:14:28.591Z,11.67
2018-09-30T09:15:28.658Z,11.72
2018-09-30T09:16:28.632Z,11.77
2018-09-30T09:17:28.568Z,11.93
2018-09-30T09:18:28.560Z,12.01
2018-09-30T09:19:28.551Z,11.86
2018-09-30T09:20:28.544Z,11.87
2018-09-30T09:21:28.574Z,11.97
2018-09-30T09:22:28.609Z,11.94
2018-09-30T09:23:28.569Z,11.89
2018-09-30T09:24:28.547Z,11.96
2018-09-30T09:25:28.758Z,12.11
2018-09-30T09:26:28.523Z,11.96
2018-09-30T09:27:28.514Z,11.97
2018-09-30T09:28:28.517Z,12.06
2018-09-30T09:29:28.509Z,11.90
2018-09-30T09:30:28.523Z,11.96
2018-09-30T09:31:28.549Z,12.11
2018-09-30T09:32:28.520Z,12.09
2018-09-30T09:33:28.486Z,12.15
2018-09-30T09:34:28.537Z,12.11
2018-09-30T09:35:28.494Z,12.09
2018-09-30T09:36:28.476Z,12.15
2018-09-30T09:37:28.474Z,12.21
2018-09-30T09:38:28.583Z,12.24
2018-09-30T09:39:28.468Z,12.20
2018-09-30T09:40:28.471Z,12.20
2018-09-30T09:41:28.481Z,12.29
2018-09-30T09:42:28.479Z,12.42
2018-09-30T09:43:28.445Z,12.41
2018-09-30T09:44:28.484Z,12.48
2018-09-30T09:45:28.439Z,12.46
2018-09-30T09:46:28.436Z,12.48
2018-09-30T09:47:28.490Z,12.49
2018-09-30T09:48:28.516Z,12.63
2018-09-30T09:49:28.432Z,12.54
2018-09-30T09:50:28.448Z,12.60
2018-09-30T09:51:28.452Z,12.62
2018-09-30T09:52:28.463Z,12.64
2018-09-30T09:53:28.441Z,12.38
2018-09-30T09:54:28.448Z,12.20
2018-09-30T09:55:28.459Z,12.42
2018-09-30T09:56:28.410Z,12.52
2018-09-30T09:57:28.435Z,12.66
2018-09-30T09:58:28.402Z,12.75
2018-09-30T09:59:28.489Z,12.70
2018-09-30T10:00:28.452Z,12.71
2018-09-30T10:01:28.401Z,12.74
2018-09-30T10:02:28.439Z,12.71
2018-09-30T10:03:28.382Z,12.93
2018-09-30T10:04:28.419Z,13.03
2018-09-30T10:05:28.417Z,12.99
2018-09-30T10:06:28.363Z,13.11
2018-09-30T10:07:28.398Z,12.88
2018-09-30T10:08:28.396Z,12.99
2018-09-30T10:09:28.381Z,12.70
2018-09-30T10:10:28.425Z,12.71
2018-09-30T10:11:28.361Z,12.96
2018-09-30T10:12:28.371Z,13.22
2018-09-30T10:13:28.345Z,13.29
2018-09-30T10:14:28.382Z,13.29
2018-09-30T10:15:28.393Z,13.27
2018-09-30T10:16:28.338Z,13.22
2018-09-30T10:17:28.378Z,13.15
2018-09-30T10:18:28.333Z,13.15
2018-09-30T10:19:28.418Z,13.07
2018-09-30T10:20:28.322Z,13.11
2018-09-30T10:21:28.342Z,13.33
2018-09-30T10:22:28.365Z,13.59
2018-09-30T10:23:28.393Z,13.74
2018-09-30T10:24:36.952Z,13.62
2018-09-30T10:26:21.705Z,13.71
2018-09-30T10:27:21.720Z,13.56
2018-09-30T10:28:21.724Z,13.58
2018-09-30T10:29:21.752Z,13.37
2018-09-30T10:30:21.726Z,13.22
2018-09-30T10:31:21.697Z,13.27
2018-09-30T10:32:21.809Z,13.30
2018-09-30T10:33:22.203Z,13.52
2018-09-30T10:34:21.692Z,13.33
2018-09-30T10:35:21.671Z,13.29
2018-09-30T10:36:21.682Z,13.43
2018-09-30T10:37:21.668Z,13.58
2018-09-30T10:38:21.745Z,13.52
2018-09-30T10:39:21.772Z,13.77
2018-09-30T10:40:21.651Z,13.77
2018-09-30T10:41:21.652Z,13.61
2018-09-30T10:42:21.657Z,13.49
2018-09-30T10:43:28.815Z,13.87
2018-09-30T10:45:25.122Z,13.65
2018-09-30T10:46:15.403Z,13.59
2018-09-30T10:47:15.023Z,13.61
2018-09-30T10:48:15.045Z,13.80
2018-09-30T10:49:23.751Z,13.99
2018-09-30T10:51:16.136Z,13.51
2018-09-30T10:52:17.265Z,13.51
2018-09-30T10:54:02.836Z,13.80
2018-09-30T10:55:02.818Z,13.87
2018-09-30T10:56:02.794Z,14.09
2018-09-30T10:57:02.786Z,14.14
2018-09-30T10:58:02.796Z,14.25
2018-09-30T10:59:02.817Z,14.39
2018-09-30T11:00:02.781Z,14.35
2018-09-30T11:01:02.769Z,14.31
2018-09-30T11:02:02.809Z,14.28
2018-09-30T11:03:02.768Z,14.27
2018-09-30T11:04:02.771Z,14.20
2018-09-30T11:05:02.788Z,14.17
2018-09-30T11:06:02.906Z,14.35
2018-09-30T11:07:02.760Z,14.21
2018-09-30T11:08:02.762Z,14.43
2018-09-30T11:09:02.772Z,14.47
2018-09-30T11:10:02.851Z,14.43
2018-09-30T11:11:02.749Z,14.47
2018-09-30T11:12:02.767Z,14.69
2018-09-30T11:13:02.780Z,14.60
2018-09-30T11:14:02.789Z,14.69
2018-09-30T11:15:02.748Z,14.80
2018-09-30T11:16:02.772Z,14.75
2018-09-30T11:17:02.738Z,14.60
2018-09-30T11:18:02.731Z,14.81
2018-09-30T11:19:02.732Z,14.83
2018-09-30T11:20:02.726Z,14.80
2018-09-30T11:21:02.743Z,14.81
2018-09-30T11:22:02.731Z,14.99
2018-09-30T11:23:02.729Z,14.94
2018-09-30T11:24:02.715Z,14.93
2018-09-30T11:25:02.850Z,14.91
2018-09-30T11:26:02.806Z,14.93
2018-09-30T11:27:02.709Z,14.91
2018-09-30T11:28:02.714Z,14.54
2018-09-30T11:29:02.778Z,14.52
2018-09-30T11:30:02.944Z,14.50
2018-09-30T11:31:02.703Z,14.53
2018-09-30T11:32:02.732Z,14.49
2018-09-30T11:33:02.707Z,14.60
2018-09-30T11:34:02.714Z,14.65
2018-09-30T11:35:02.692Z,14.46
2018-09-30T11:36:02.685Z,14.69
2018-09-30T11:37:02.700Z,14.62
2018-09-30T11:38:02.696Z,14.54
2018-09-30T11:39:02.700Z,14.87
2018-09-30T11:40:02.697Z,14.87
2018-09-30T11:41:02.707Z,14.74
2018-09-30T11:42:02.678Z,14.94
2018-09-30T11:43:02.673Z,15.23
2018-09-30T11:44:02.942Z,14.94
2018-09-30T11:45:02.735Z,15.06
2018-09-30T11:46:02.681Z,15.09
2018-09-30T11:47:02.668Z,15.45
2018-09-30T11:48:02.908Z,15.54
2018-09-30T11:49:02.718Z,15.31
2018-09-30T11:50:02.670Z,15.19
2018-09-30T11:51:02.664Z,15.19
2018-09-30T11:52:02.657Z,15.35
2018-09-30T11:53:02.688Z,15.51
2018-09-30T11:54:02.674Z,15.24
2018-09-30T11:55:02.658Z,15.08
2018-09-30T11:56:02.680Z,15.28
2018-09-30T11:57:02.674Z,15.46
2018-09-30T11:58:02.647Z,15.46
2018-09-30T11:59:02.652Z,15.61
2018-09-30T12:00:02.668Z,15.81
2018-09-30T12:01:02.680Z,15.89
2018-09-30T12:02:02.635Z,15.84
2018-09-30T12:03:02.646Z,15.94
2018-09-30T12:04:02.640Z,15.85
2018-09-30T12:05:02.647Z,15.86
2018-09-30T12:06:02.648Z,15.59
2018-09-30T12:07:02.634Z,15.70
2018-09-30T12:08:02.640Z,15.54
2018-09-30T12:09:02.633Z,15.54
2018-09-30T12:10:02.673Z,15.60
2018-09-30T12:11:02.621Z,15.93
2018-09-30T12:12:02.786Z,15.51
2018-09-30T12:13:02.658Z,15.35
2018-09-30T12:14:02.662Z,15.17
2018-09-30T12:15:02.621Z,15.11
2018-09-30T12:16:02.633Z,15.19
2018-09-30T12:17:02.614Z,15.19
2018-09-30T12:18:02.619Z,15.61
2018-09-30T12:19:02.839Z,15.79
2018-09-30T12:20:02.681Z,15.74
2018-09-30T12:21:02.625Z,15.89
2018-09-30T12:22:02.777Z,15.97
2018-09-30T12:23:02.687Z,16.26
2018-09-30T12:24:02.654Z,16.25
2018-09-30T12:25:02.665Z,15.94
2018-09-30T12:26:02.610Z,15.97
2018-09-30T12:27:02.607Z,16.25
2018-09-30T12:28:02.702Z,16.30
2018-09-30T12:29:02.699Z,16.59
2018-09-30T12:30:02.647Z,16.71
2018-09-30T12:31:02.598Z,16.41
2018-09-30T12:32:02.623Z,16.48
2018-09-30T12:33:02.669Z,16.30
2018-09-30T12:34:02.626Z,15.92
2018-09-30T12:35:02.647Z,16.18
2018-09-30T12:36:02.624Z,16.35
2018-09-30T12:37:02.600Z,16.09
2018-09-30T12:38:02.593Z,15.92
2018-09-30T12:39:02.696Z,15.93
2018-09-30T12:40:02.588Z,16.01
2018-09-30T12:41:02.597Z,15.74
2018-09-30T12:42:02.603Z,15.63
2018-09-30T12:43:02.588Z,15.84
2018-09-30T12:44:02.589Z,16.27
2018-09-30T12:45:02.593Z,16.37
2018-09-30T12:46:02.602Z,16.33
2018-09-30T12:47:02.596Z,16.75
2018-09-30T12:48:02.661Z,16.34
2018-09-30T12:49:02.596Z,15.99
2018-09-30T12:50:02.599Z,16.23
2018-09-30T12:51:02.609Z,16.30
2018-09-30T12:52:02.579Z,16.90
2018-09-30T12:53:02.580Z,16.68
2018-09-30T12:54:02.580Z,16.40
2018-09-30T12:55:02.586Z,16.00
2018-09-30T12:56:02.583Z,15.84
2018-09-30T12:57:02.576Z,15.85
2018-09-30T12:58:02.655Z,15.76
2018-09-30T12:59:02.579Z,15.68
2018-09-30T13:00:02.594Z,15.79
2018-09-30T13:01:02.592Z,15.67
2018-09-30T13:02:02.581Z,16.01
2018-09-30T13:03:02.572Z,16.27
2018-09-30T13:04:02.580Z,16.23
2018-09-30T13:05:02.574Z,16.45
2018-09-30T13:06:02.611Z,16.30
2018-09-30T13:07:02.571Z,16.67
2018-09-30T13:08:02.571Z,16.73
2018-09-30T13:09:02.568Z,16.95
2018-09-30T13:10:02.583Z,17.04
2018-09-30T13:11:02.563Z,17.06
2018-09-30T13:12:02.563Z,16.95
2018-09-30T13:13:02.591Z,16.89
2018-09-30T13:14:02.566Z,17.03
2018-09-30T13:15:02.564Z,17.36
2018-09-30T13:16:02.585Z,17.13
2018-09-30T13:17:02.577Z,16.88
2018-09-30T13:18:02.562Z,17.11
2018-09-30T13:19:02.559Z,17.28
2018-09-30T13:20:02.694Z,17.06
2018-09-30T13:21:02.686Z,17.25
2018-09-30T13:22:02.583Z,17.35
2018-09-30T13:23:02.562Z,16.98
2018-09-30T13:24:02.612Z,16.49
2018-09-30T13:25:02.558Z,16.40
2018-09-30T13:26:02.568Z,16.71
2018-09-30T13:27:02.696Z,17.18
2018-09-30T13:28:02.578Z,17.29
2018-09-30T13:29:02.784Z,17.48
2018-09-30T13:30:02.584Z,17.53
2018-09-30T13:31:02.608Z,17.32
2018-09-30T13:32:02.623Z,17.23
2018-09-30T13:33:02.550Z,17.10
2018-09-30T13:34:02.598Z,17.20
2018-09-30T13:35:02.627Z,17.44
2018-09-30T13:36:02.837Z,17.63
2018-09-30T13:37:10.255Z,17.53
2018-09-30T13:38:56.084Z,17.03
2018-09-30T13:39:56.076Z,16.90
2018-09-30T13:40:56.310Z,17.22
2018-09-30T13:41:56.016Z,17.40
2018-09-30T13:42:56.020Z,17.63
2018-09-30T13:44:05.529Z,17.71
2018-09-30T13:45:49.826Z,17.28
2018-09-30T13:46:49.531Z,16.93
2018-09-30T13:47:49.537Z,17.18
2018-09-30T13:48:50.429Z,16.95
2018-09-30T13:49:49.511Z,16.71
2018-09-30T13:50:49.507Z,16.70
2018-09-30T13:51:49.664Z,16.96
2018-09-30T13:52:49.542Z,17.17
2018-09-30T13:53:49.558Z,17.53
2018-09-30T13:54:49.595Z,17.64
2018-09-30T13:55:49.556Z,17.32
2018-09-30T13:56:49.555Z,17.10
2018-09-30T13:57:49.513Z,17.15
2018-09-30T13:58:49.536Z,17.55
2018-09-30T13:59:49.515Z,17.41
2018-09-30T14:00:49.511Z,17.06
2018-09-30T14:01:49.517Z,17.14
2018-09-30T14:02:49.599Z,17.35
2018-09-30T14:03:49.534Z,17.67
2018-09-30T14:04:49.543Z,17.87
2018-09-30T14:05:49.541Z,17.79
2018-09-30T14:06:49.618Z,17.88
2018-09-30T14:07:49.520Z,17.82
2018-09-30T14:08:49.519Z,17.92
2018-09-30T14:09:49.544Z,18.02
2018-09-30T14:10:49.537Z,17.84
2018-09-30T14:11:49.527Z,17.70
2018-09-30T14:12:49.506Z,17.85
2018-09-30T14:13:49.523Z,17.81
2018-09-30T14:14:49.521Z,17.92
2018-09-30T14:15:49.513Z,18.03
2018-09-30T14:16:49.510Z,17.87
2018-09-30T14:17:49.512Z,17.70
2018-09-30T14:18:49.590Z,17.70
2018-09-30T14:19:49.519Z,17.64
2018-09-30T14:20:49.518Z,17.63
2018-09-30T14:21:49.527Z,17.44
2018-09-30T14:22:49.522Z,17.64
2018-09-30T14:23:49.513Z,17.84
2018-09-30T14:24:49.509Z,18.09
2018-09-30T14:25:49.516Z,18.44
2018-09-30T14:26:49.523Z,18.15
2018-09-30T14:27:49.514Z,17.81
2018-09-30T14:28:49.515Z,17.46
2018-09-30T14:29:49.511Z,17.28
2018-09-30T14:30:49.520Z,17.29
2018-09-30T14:31:49.528Z,17.35
2018-09-30T14:32:49.558Z,17.43
2018-09-30T14:33:49.519Z,17.43
2018-09-30T14:34:49.516Z,17.47
2018-09-30T14:35:49.555Z,17.63
2018-09-30T14:36:49.661Z,17.51
2018-09-30T14:37:49.603Z,17.33
2018-09-30T14:38:49.537Z,17.74
2018-09-30T14:39:49.529Z,17.55
2018-09-30T14:40:49.510Z,18.28
2018-09-30T14:41:49.518Z,18.43
2018-09-30T14:42:49.542Z,18.50
2018-09-30T14:43:49.522Z,18.25
2018-09-30T14:44:49.520Z,17.73
2018-09-30T14:45:49.543Z,17.66
2018-09-30T14:46:49.523Z,17.79
2018-09-30T14:47:49.537Z,18.02
2018-09-30T14:48:49.525Z,17.69
2018-09-30T14:49:49.537Z,17.66
2018-09-30T14:50:49.536Z,17.97
2018-09-30T14:51:49.526Z,18.25
2018-09-30T14:52:49.533Z,18.33
2018-09-30T14:53:49.547Z,18.40
2018-09-30T14:54:49.531Z,18.28
2018-09-30T14:55:49.520Z,18.55
2018-09-30T14:56:49.516Z,18.40
2018-09-30T14:57:49.522Z,18.55
2018-09-30T14:58:49.535Z,18.54
2018-09-30T14:59:49.581Z,18.50
2018-09-30T15:00:49.532Z,18.57
2018-09-30T15:01:49.535Z,18.39
2018-09-30T15:02:49.529Z,18.46
2018-09-30T15:03:49.534Z,18.62
2018-09-30T15:04:49.543Z,18.61
2018-09-30T15:05:49.534Z,18.54
2018-09-30T15:06:49.536Z,18.43
2018-09-30T15:07:49.535Z,18.33
2018-09-30T15:08:49.545Z,18.58
2018-09-30T15:09:49.541Z,18.74
2018-09-30T15:10:49.553Z,18.67
2018-09-30T15:11:49.542Z,18.58
2018-09-30T15:12:49.530Z,18.59
2018-09-30T15:13:49.598Z,18.59
2018-09-30T15:14:49.536Z,18.61
2018-09-30T15:15:49.532Z,18.50
2018-09-30T15:16:49.568Z,18.29
2018-09-30T15:17:49.557Z,18.50
2018-09-30T15:18:49.544Z,18.65
2018-09-30T15:19:49.548Z,18.58
2018-09-30T15:20:49.547Z,18.59
2018-09-30T15:21:49.539Z,18.62
2018-09-30T15:22:49.557Z,18.59
2018-09-30T15:23:49.558Z,18.67
2018-09-30T15:24:49.550Z,18.68
2018-09-30T15:25:49.567Z,18.55
2018-09-30T15:26:49.550Z,18.73
2018-09-30T15:27:49.550Z,18.62
2018-09-30T15:28:49.567Z,18.57
2018-09-30T15:29:49.570Z,18.61
2018-09-30T15:30:49.574Z,18.80
2018-09-30T15:31:49.575Z,18.79
2018-09-30T15:32:59.043Z,18.59
2018-09-30T15:34:42.977Z,18.46
2018-09-30T15:35:43.050Z,18.36
2018-09-30T15:36:42.992Z,18.40
2018-09-30T15:37:42.975Z,18.54
2018-09-30T15:38:42.968Z,18.54
2018-09-30T15:39:43.012Z,18.55
2018-09-30T15:40:42.962Z,18.55
2018-09-30T15:41:42.967Z,18.52
2018-09-30T15:42:42.968Z,18.59
2018-09-30T15:43:42.968Z,18.50
2018-09-30T15:44:42.964Z,18.46
2018-09-30T15:45:42.966Z,18.54
2018-09-30T15:46:42.970Z,18.57
2018-09-30T15:47:42.971Z,18.46
2018-09-30T15:48:42.981Z,18.54
2018-09-30T15:49:42.967Z,18.55
2018-09-30T15:50:42.966Z,18.39
2018-09-30T15:51:42.975Z,18.34
2018-09-30T15:52:43.000Z,18.25
2018-09-30T15:53:42.978Z,18.02
2018-09-30T15:54:42.992Z,18.07
2018-09-30T15:55:43.000Z,18.18
2018-09-30T15:56:42.982Z,18.34
2018-09-30T15:57:43.009Z,18.28
2018-09-30T15:58:42.979Z,18.33
2018-09-30T15:59:42.983Z,18.17
2018-09-30T16:00:42.981Z,18.09
2018-09-30T16:01:42.977Z,18.18
2018-09-30T16:02:42.979Z,18.31
2018-09-30T16:03:42.983Z,18.42
2018-09-30T16:04:43.208Z,18.31
2018-09-30T16:05:42.991Z,18.27
2018-09-30T16:06:43.008Z,18.18
2018-09-30T16:07:42.979Z,18.27
2018-09-30T16:08:42.980Z,18.07
2018-09-30T16:09:42.986Z,18.04
2018-09-30T16:10:42.998Z,18.00
2018-09-30T16:11:42.997Z,18.09
2018-09-30T16:12:42.987Z,17.92
2018-09-30T16:13:42.994Z,17.94
2018-09-30T16:14:43.005Z,17.81
2018-09-30T16:15:42.981Z,17.84
2018-09-30T16:16:42.991Z,17.85
2018-09-30T16:17:42.998Z,18.03
2018-09-30T16:18:42.996Z,18.06
2018-09-30T16:19:42.985Z,18.03
2018-09-30T16:20:42.995Z,18.10
2018-09-30T16:21:42.995Z,18.17
2018-09-30T16:22:42.993Z,18.17
2018-09-30T16:23:42.997Z,18.10
2018-09-30T16:24:42.998Z,18.06
2018-09-30T16:25:42.996Z,18.10
2018-09-30T16:26:43.015Z,18.00
2018-09-30T16:27:43.028Z,17.97
2018-09-30T16:28:43.014Z,18.06